Palmetto, LA (71358)

11:06 AM CDT on July 30, 2016 (GMT -0500)
Evangeline Sub. | | Change Station

Elev 82 ft 30.58 °N, 92.08 °W | Updated 3 minutes ago

Scattered Clouds
Scattered Clouds
93.2 °F
Feels Like 116 °F
N
1.7
Wind Variable Wind from West

Today
High -- | Low -- °F
--% Chance of Precip.
Yesterday
High -- | Low -- °F
Precip. -- in
Pressure 30.05 in
Visibility 10.0 miles
Clouds Scattered Clouds 2700 ft
Scattered Clouds 4900 ft
Scattered Clouds 7500 ft
Heat Index 116 °F
Dew Point 82 °F
Humidity 70%
Rainfall 0.00 in
Snow Depth Not available.
6:24 AM 8:03 PM
Waning Crescent, 12% visible
METAR KOPL 301555Z AUTO 29004KT 10SM SCT027 SCT049 SCT075 31/25 A3005 RMK AO2 T03080247 PWINO
Pressure 30.05 in
Visibility 10.0 miles
Clouds Scattered Clouds 2700 ft
Scattered Clouds 4900 ft
Scattered Clouds 7500 ft
Heat Index 116 °F
Dew Point 82 °F
Humidity 70%
Rainfall 0.00 in
Snow Depth Not available.
6:24 AM 8:03 PM
Waning Crescent, 12% visible
METAR KOPL 301555Z AUTO 29004KT 10SM SCT027 SCT049 SCT075 31/25 A3005 RMK AO2 T03080247 PWINO

10-Day Weather Forecast

Almanac

Astronomy

Jul. 30, 2016 Rise Set
Actual Time
Civil Twilight
Nautical Twilight
Astronomical Twilight
Moon
Length of Visible Light
Length of Day
Tomorrow will be .
, % of the Moon is Illuminated

Today's Extremes

State Highs State Lows

Community

WunderPhotos

Upload Photos

1,928,592 photos uploaded!

WunderBlog® & News

Nearby

Air Quality

  Air Quality AQ Index Pollutant
Not available.

Snow Depth

Station Depth Elevation

Earthquake Activity

City Distance Mag. Time & Date
Minimum magnitude displayed is 2.5.

Coastal Water Temperatures

Place Temperature

Stations

Nearby Weather Stations

Station Location Temp. Windchill Dew Point Humidity Wind Precip. Elev Updated Type
                   

Watches & Warnings

There are currently no watches in effect.